sensor_id;sensor_type;location;lat;lon;timestamp;P1;durP1;ratioP1;P2;durP2;ratioP2
64950;SDS011;51482;47.014;7.652;2024-02-26T00:00:09;3.30;;;2.80;;
64950;SDS011;51482;47.014;7.652;2024-02-26T00:02:36;4.00;;;2.93;;
64950;SDS011;51482;47.014;7.652;2024-02-26T00:05:04;3.17;;;2.87;;
64950;SDS011;51482;47.014;7.652;2024-02-26T00:07:31;2.57;;;2.37;;
64950;SDS011;51482;47.014;7.652;2024-02-26T00:09:56;3.90;;;2.53;;
64950;SDS011;51482;47.014;7.652;2024-02-26T00:12:22;2.60;;;2.40;;
64950;SDS011;51482;47.014;7.652;2024-02-26T00:14:47;3.17;;;2.70;;
64950;SDS011;51482;47.014;7.652;2024-02-26T00:17:14;2.60;;;2.40;;
64950;SDS011;51482;47.014;7.652;2024-02-26T00:19:40;4.93;;;3.60;;
64950;SDS011;51482;47.014;7.652;2024-02-26T00:22:06;3.73;;;2.93;;
64950;SDS011;51482;47.014;7.652;2024-02-26T00:24:32;3.93;;;3.20;;
64950;SDS011;51482;47.014;7.652;2024-02-26T00:26:58;5.03;;;3.17;;
64950;SDS011;51482;47.014;7.652;2024-02-26T00:29:24;6.97;;;3.47;;
64950;SDS011;51482;47.014;7.652;2024-02-26T00:31:50;3.27;;;2.80;;
64950;SDS011;51482;47.014;7.652;2024-02-26T00:34:16;3.27;;;2.43;;
64950;SDS011;51482;47.014;7.652;2024-02-26T00:36:41;3.73;;;2.70;;
64950;SDS011;51482;47.014;7.652;2024-02-26T00:39:07;3.23;;;2.80;;
64950;SDS011;51482;47.014;7.652;2024-02-26T00:41:33;4.27;;;2.53;;
64950;SDS011;51482;47.014;7.652;2024-02-26T00:44:02;3.83;;;2.77;;
64950;SDS011;51482;47.014;7.652;2024-02-26T00:46:28;2.93;;;2.57;;
64950;SDS011;51482;47.014;7.652;2024-02-26T00:48:53;4.53;;;2.70;;
64950;SDS011;51482;47.014;7.652;2024-02-26T00:51:19;3.20;;;2.80;;
64950;SDS011;51482;47.014;7.652;2024-02-26T00:53:45;6.07;;;3.17;;
64950;SDS011;51482;47.014;7.652;2024-02-26T00:56:10;5.70;;;3.70;;
64950;SDS011;51482;47.014;7.652;2024-02-26T00:58:36;3.40;;;2.80;;
64950;SDS011;51482;47.014;7.652;2024-02-26T01:01:01;2.83;;;2.63;;
64950;SDS011;51482;47.014;7.652;2024-02-26T01:03:28;3.87;;;2.60;;
64950;SDS011;51482;47.014;7.652;2024-02-26T01:05:53;3.07;;;2.60;;
64950;SDS011;51482;47.014;7.652;2024-02-26T01:08:19;4.00;;;3.00;;
64950;SDS011;51482;47.014;7.652;2024-02-26T01:10:45;3.00;;;2.50;;
64950;SDS011;51482;47.014;7.652;2024-02-26T01:13:10;3.57;;;2.60;;
64950;SDS011;51482;47.014;7.652;2024-02-26T01:15:36;5.60;;;2.67;;
64950;SDS011;51482;47.014;7.652;2024-02-26T01:18:02;2.60;;;2.40;;
64950;SDS011;51482;47.014;7.652;2024-02-26T01:20:27;2.97;;;2.47;;
64950;SDS011;51482;47.014;7.652;2024-02-26T01:22:53;2.77;;;2.50;;
64950;SDS011;51482;47.014;7.652;2024-02-26T01:25:19;3.07;;;2.77;;
64950;SDS011;51482;47.014;7.652;2024-02-26T01:27:44;3.03;;;2.67;;
64950;SDS011;51482;47.014;7.652;2024-02-26T01:30:10;3.43;;;2.73;;
64950;SDS011;51482;47.014;7.652;2024-02-26T01:32:36;4.33;;;3.00;;
64950;SDS011;51482;47.014;7.652;2024-02-26T01:35:02;3.33;;;3.03;;
64950;SDS011;51482;47.014;7.652;2024-02-26T01:37:35;3.03;;;2.73;;
64950;SDS011;51482;47.014;7.652;2024-02-26T01:40:00;3.50;;;3.20;;
64950;SDS011;51482;47.014;7.652;2024-02-26T01:42:29;2.97;;;2.67;;
64950;SDS011;51482;47.014;7.652;2024-02-26T01:44:55;3.63;;;3.03;;
64950;SDS011;51482;47.014;7.652;2024-02-26T01:47:21;4.40;;;3.00;;
64950;SDS011;51482;47.014;7.652;2024-02-26T01:49:47;3.27;;;2.97;;
64950;SDS011;51482;47.014;7.652;2024-02-26T01:52:13;3.20;;;2.90;;
64950;SDS011;51482;47.014;7.652;2024-02-26T01:54:39;4.67;;;2.80;;
64950;SDS011;51482;47.014;7.652;2024-02-26T01:57:06;3.83;;;2.60;;
64950;SDS011;51482;47.014;7.652;2024-02-26T01:59:33;3.50;;;2.53;;
64950;SDS011;51482;47.014;7.652;2024-02-26T02:02:01;2.90;;;2.53;;
64950;SDS011;51482;47.014;7.652;2024-02-26T02:04:28;5.23;;;2.40;;
64950;SDS011;51482;47.014;7.652;2024-02-26T02:06:54;3.10;;;2.43;;
64950;SDS011;51482;47.014;7.652;2024-02-26T02:09:20;3.30;;;2.83;;
64950;SDS011;51482;47.014;7.652;2024-02-26T02:11:48;2.60;;;2.30;;
64950;SDS011;51482;47.014;7.652;2024-02-26T02:14:13;2.93;;;2.33;;
64950;SDS011;51482;47.014;7.652;2024-02-26T02:16:39;2.20;;;2.03;;
64950;SDS011;51482;47.014;7.652;2024-02-26T02:19:05;2.40;;;2.20;;
64950;SDS011;51482;47.014;7.652;2024-02-26T02:21:31;2.73;;;2.53;;
64950;SDS011;51482;47.014;7.652;2024-02-26T02:23:56;3.13;;;2.43;;
64950;SDS011;51482;47.014;7.652;2024-02-26T02:26:22;4.87;;;2.57;;
64950;SDS011;51482;47.014;7.652;2024-02-26T02:28:47;4.27;;;2.63;;
64950;SDS011;51482;47.014;7.652;2024-02-26T02:31:13;3.50;;;2.70;;
64950;SDS011;51482;47.014;7.652;2024-02-26T02:33:40;3.13;;;2.83;;
64950;SDS011;51482;47.014;7.652;2024-02-26T02:36:06;3.90;;;3.20;;
64950;SDS011;51482;47.014;7.652;2024-02-26T02:38:35;3.90;;;2.30;;
64950;SDS011;51482;47.014;7.652;2024-02-26T02:41:01;2.93;;;2.50;;
64950;SDS011;51482;47.014;7.652;2024-02-26T02:43:26;3.43;;;2.80;;
64950;SDS011;51482;47.014;7.652;2024-02-26T02:45:52;5.20;;;2.87;;
64950;SDS011;51482;47.014;7.652;2024-02-26T02:48:17;3.03;;;2.63;;
64950;SDS011;51482;47.014;7.652;2024-02-26T02:50:43;2.67;;;2.47;;
64950;SDS011;51482;47.014;7.652;2024-02-26T02:53:08;5.17;;;3.33;;
64950;SDS011;51482;47.014;7.652;2024-02-26T02:55:35;4.80;;;3.40;;
64950;SDS011;51482;47.014;7.652;2024-02-26T02:58:00;3.83;;;2.50;;
64950;SDS011;51482;47.014;7.652;2024-02-26T03:00:26;3.03;;;2.70;;
64950;SDS011;51482;47.014;7.652;2024-02-26T03:02:51;4.50;;;2.87;;
64950;SDS011;51482;47.014;7.652;2024-02-26T03:05:17;4.07;;;3.77;;
64950;SDS011;51482;47.014;7.652;2024-02-26T03:07:42;4.30;;;3.70;;
64950;SDS011;51482;47.014;7.652;2024-02-26T03:10:08;3.00;;;2.80;;
64950;SDS011;51482;47.014;7.652;2024-02-26T03:12:34;4.47;;;3.80;;
64950;SDS011;51482;47.014;7.652;2024-02-26T03:15:00;2.87;;;2.67;;
64950;SDS011;51482;47.014;7.652;2024-02-26T03:17:29;5.27;;;2.73;;
64950;SDS011;51482;47.014;7.652;2024-02-26T03:19:55;2.40;;;2.30;;
64950;SDS011;51482;47.014;7.652;2024-02-26T03:22:20;6.80;;;2.73;;
64950;SDS011;51482;47.014;7.652;2024-02-26T03:24:46;3.50;;;3.20;;
64950;SDS011;51482;47.014;7.652;2024-02-26T03:27:12;2.60;;;2.30;;
64950;SDS011;51482;47.014;7.652;2024-02-26T03:29:38;2.90;;;2.70;;
64950;SDS011;51482;47.014;7.652;2024-02-26T03:32:04;3.07;;;2.87;;
64950;SDS011;51482;47.014;7.652;2024-02-26T03:34:31;3.13;;;2.67;;
64950;SDS011;51482;47.014;7.652;2024-02-26T03:36:59;2.77;;;2.57;;
64950;SDS011;51482;47.014;7.652;2024-02-26T03:39:25;5.07;;;2.80;;
64950;SDS011;51482;47.014;7.652;2024-02-26T03:41:50;2.80;;;2.60;;
64950;SDS011;51482;47.014;7.652;2024-02-26T03:44:16;2.67;;;2.47;;
64950;SDS011;51482;47.014;7.652;2024-02-26T03:46:41;3.07;;;2.70;;
64950;SDS011;51482;47.014;7.652;2024-02-26T03:49:10;3.70;;;2.50;;
64950;SDS011;51482;47.014;7.652;2024-02-26T03:51:36;6.13;;;4.13;;
64950;SDS011;51482;47.014;7.652;2024-02-26T03:54:02;4.80;;;3.80;;
64950;SDS011;51482;47.014;7.652;2024-02-26T03:56:28;3.00;;;2.80;;
64950;SDS011;51482;47.014;7.652;2024-02-26T03:58:54;2.60;;;2.40;;
64950;SDS011;51482;47.014;7.652;2024-02-26T04:01:19;2.80;;;2.60;;
64950;SDS011;51482;47.014;7.652;2024-02-26T04:03:45;2.70;;;2.50;;
64950;SDS011;51482;47.014;7.652;2024-02-26T04:06:11;2.50;;;2.30;;
64950;SDS011;51482;47.014;7.652;2024-02-26T04:08:39;3.03;;;2.60;;
64950;SDS011;51482;47.014;7.652;2024-02-26T04:11:05;3.73;;;2.57;;
64950;SDS011;51482;47.014;7.652;2024-02-26T04:13:33;2.77;;;2.50;;
64950;SDS011;51482;47.014;7.652;2024-02-26T04:15:59;4.63;;;3.10;;
64950;SDS011;51482;47.014;7.652;2024-02-26T04:18:27;4.47;;;3.13;;
64950;SDS011;51482;47.014;7.652;2024-02-26T04:20:53;9.73;;;6.43;;
64950;SDS011;51482;47.014;7.652;2024-02-26T04:23:19;9.73;;;5.73;;
64950;SDS011;51482;47.014;7.652;2024-02-26T04:25:45;5.77;;;4.20;;
64950;SDS011;51482;47.014;7.652;2024-02-26T04:28:10;4.37;;;3.53;;
64950;SDS011;51482;47.014;7.652;2024-02-26T04:30:37;4.23;;;3.60;;
64950;SDS011;51482;47.014;7.652;2024-02-26T04:33:03;7.10;;;6.60;;
64950;SDS011;51482;47.014;7.652;2024-02-26T04:35:28;6.93;;;6.33;;
64950;SDS011;51482;47.014;7.652;2024-02-26T04:37:54;5.57;;;4.70;;
64950;SDS011;51482;47.014;7.652;2024-02-26T04:40:19;10.73;;;5.63;;
64950;SDS011;51482;47.014;7.652;2024-02-26T04:42:45;3.50;;;3.03;;
64950;SDS011;51482;47.014;7.652;2024-02-26T04:45:11;3.77;;;3.37;;
64950;SDS011;51482;47.014;7.652;2024-02-26T04:47:36;3.90;;;2.87;;
64950;SDS011;51482;47.014;7.652;2024-02-26T04:50:02;3.97;;;2.93;;
64950;SDS011;51482;47.014;7.652;2024-02-26T04:52:28;5.53;;;3.73;;
64950;SDS011;51482;47.014;7.652;2024-02-26T04:54:53;2.97;;;2.67;;
64950;SDS011;51482;47.014;7.652;2024-02-26T04:57:19;3.00;;;2.60;;
64950;SDS011;51482;47.014;7.652;2024-02-26T04:59:46;3.03;;;2.60;;
64950;SDS011;51482;47.014;7.652;2024-02-26T05:02:12;4.53;;;2.60;;
64950;SDS011;51482;47.014;7.652;2024-02-26T05:04:38;4.57;;;3.10;;
64950;SDS011;51482;47.014;7.652;2024-02-26T05:07:03;3.40;;;3.10;;
64950;SDS011;51482;47.014;7.652;2024-02-26T05:09:29;4.07;;;2.90;;
64950;SDS011;51482;47.014;7.652;2024-02-26T05:11:55;5.03;;;3.30;;
64950;SDS011;51482;47.014;7.652;2024-02-26T05:14:20;7.87;;;4.37;;
64950;SDS011;51482;47.014;7.652;2024-02-26T05:16:46;3.97;;;3.33;;
64950;SDS011;51482;47.014;7.652;2024-02-26T05:19:12;3.70;;;3.40;;
64950;SDS011;51482;47.014;7.652;2024-02-26T05:21:38;3.07;;;2.77;;
64950;SDS011;51482;47.014;7.652;2024-02-26T05:24:04;3.40;;;2.77;;
64950;SDS011;51482;47.014;7.652;2024-02-26T05:26:31;5.00;;;3.07;;
64950;SDS011;51482;47.014;7.652;2024-02-26T05:28:56;4.17;;;3.10;;
64950;SDS011;51482;47.014;7.652;2024-02-26T05:31:25;5.37;;;3.20;;
64950;SDS011;51482;47.014;7.652;2024-02-26T05:33:51;3.53;;;3.07;;
64950;SDS011;51482;47.014;7.652;2024-02-26T05:36:18;4.20;;;2.80;;
64950;SDS011;51482;47.014;7.652;2024-02-26T05:38:44;3.07;;;2.77;;
64950;SDS011;51482;47.014;7.652;2024-02-26T05:41:11;2.70;;;2.37;;
64950;SDS011;51482;47.014;7.652;2024-02-26T05:43:37;4.67;;;2.70;;
64950;SDS011;51482;47.014;7.652;2024-02-26T05:46:02;4.70;;;2.70;;
64950;SDS011;51482;47.014;7.652;2024-02-26T05:48:28;2.73;;;2.53;;
64950;SDS011;51482;47.014;7.652;2024-02-26T05:50:53;3.13;;;2.80;;
64950;SDS011;51482;47.014;7.652;2024-02-26T05:53:19;2.83;;;2.60;;
64950;SDS011;51482;47.014;7.652;2024-02-26T05:55:44;3.70;;;3.03;;
64950;SDS011;51482;47.014;7.652;2024-02-26T05:58:10;2.87;;;2.67;;
64950;SDS011;51482;47.014;7.652;2024-02-26T06:00:35;3.10;;;2.80;;
64950;SDS011;51482;47.014;7.652;2024-02-26T06:03:01;4.23;;;2.67;;
64950;SDS011;51482;47.014;7.652;2024-02-26T06:05:27;3.87;;;3.23;;
64950;SDS011;51482;47.014;7.652;2024-02-26T06:07:52;3.70;;;2.90;;
64950;SDS011;51482;47.014;7.652;2024-02-26T06:10:18;3.10;;;2.80;;
64950;SDS011;51482;47.014;7.652;2024-02-26T06:12:46;4.70;;;2.87;;
64950;SDS011;51482;47.014;7.652;2024-02-26T06:15:12;4.97;;;3.70;;
64950;SDS011;51482;47.014;7.652;2024-02-26T06:17:37;4.10;;;3.70;;
64950;SDS011;51482;47.014;7.652;2024-02-26T06:20:03;5.87;;;4.13;;
64950;SDS011;51482;47.014;7.652;2024-02-26T06:22:31;4.60;;;3.00;;
64950;SDS011;51482;47.014;7.652;2024-02-26T06:24:56;2.50;;;2.30;;
64950;SDS011;51482;47.014;7.652;2024-02-26T06:27:22;3.93;;;2.60;;
64950;SDS011;51482;47.014;7.652;2024-02-26T06:29:48;5.03;;;3.00;;
64950;SDS011;51482;47.014;7.652;2024-02-26T06:32:14;2.83;;;2.60;;
64950;SDS011;51482;47.014;7.652;2024-02-26T06:34:40;2.83;;;2.53;;
64950;SDS011;51482;47.014;7.652;2024-02-26T06:37:07;3.03;;;2.40;;
64950;SDS011;51482;47.014;7.652;2024-02-26T06:39:33;4.47;;;2.50;;
64950;SDS011;51482;47.014;7.652;2024-02-26T06:41:58;3.27;;;2.80;;
64950;SDS011;51482;47.014;7.652;2024-02-26T06:44:27;3.87;;;3.57;;
64950;SDS011;51482;47.014;7.652;2024-02-26T06:46:59;3.87;;;2.90;;
64950;SDS011;51482;47.014;7.652;2024-02-26T06:49:25;3.10;;;2.90;;
64950;SDS011;51482;47.014;7.652;2024-02-26T06:51:51;3.90;;;3.53;;
64950;SDS011;51482;47.014;7.652;2024-02-26T06:54:16;3.80;;;3.50;;
64950;SDS011;51482;47.014;7.652;2024-02-26T06:56:42;2.90;;;2.70;;
64950;SDS011;51482;47.014;7.652;2024-02-26T06:59:07;4.13;;;2.77;;
64950;SDS011;51482;47.014;7.652;2024-02-26T07:01:33;3.37;;;3.07;;
64950;SDS011;51482;47.014;7.652;2024-02-26T07:03:59;3.50;;;3.27;;
64950;SDS011;51482;47.014;7.652;2024-02-26T07:06:25;4.20;;;3.70;;
64950;SDS011;51482;47.014;7.652;2024-02-26T07:08:52;4.60;;;4.13;;
64950;SDS011;51482;47.014;7.652;2024-02-26T07:11:17;3.37;;;3.07;;
64950;SDS011;51482;47.014;7.652;2024-02-26T07:13:44;3.27;;;2.97;;
64950;SDS011;51482;47.014;7.652;2024-02-26T07:16:11;2.40;;;2.20;;
64950;SDS011;51482;47.014;7.652;2024-02-26T07:18:36;3.37;;;2.70;;
64950;SDS011;51482;47.014;7.652;2024-02-26T07:21:02;2.87;;;2.67;;
64950;SDS011;51482;47.014;7.652;2024-02-26T07:23:28;2.40;;;2.20;;
64950;SDS011;51482;47.014;7.652;2024-02-26T07:25:54;2.63;;;2.43;;
64950;SDS011;51482;47.014;7.652;2024-02-26T07:28:20;3.10;;;2.90;;
64950;SDS011;51482;47.014;7.652;2024-02-26T07:30:45;2.30;;;2.20;;
64950;SDS011;51482;47.014;7.652;2024-02-26T07:33:11;2.50;;;2.30;;
64950;SDS011;51482;47.014;7.652;2024-02-26T07:35:36;2.30;;;2.20;;
64950;SDS011;51482;47.014;7.652;2024-02-26T07:38:03;2.73;;;1.90;;
64950;SDS011;51482;47.014;7.652;2024-02-26T07:40:32;2.30;;;2.10;;
64950;SDS011;51482;47.014;7.652;2024-02-26T07:42:58;2.30;;;2.10;;
64950;SDS011;51482;47.014;7.652;2024-02-26T07:45:23;2.63;;;2.43;;
64950;SDS011;51482;47.014;7.652;2024-02-26T07:47:49;2.50;;;2.40;;
64950;SDS011;51482;47.014;7.652;2024-02-26T07:50:16;2.07;;;1.97;;
64950;SDS011;51482;47.014;7.652;2024-02-26T07:52:42;2.43;;;2.33;;
64950;SDS011;51482;47.014;7.652;2024-02-26T07:55:08;2.23;;;2.03;;
64950;SDS011;51482;47.014;7.652;2024-02-26T07:57:34;2.23;;;2.13;;
64950;SDS011;51482;47.014;7.652;2024-02-26T08:00:00;1.97;;;1.87;;
64950;SDS011;51482;47.014;7.652;2024-02-26T08:02:26;2.20;;;2.10;;
64950;SDS011;51482;47.014;7.652;2024-02-26T08:04:51;2.53;;;2.40;;
64950;SDS011;51482;47.014;7.652;2024-02-26T08:07:17;2.30;;;2.20;;
64950;SDS011;51482;47.014;7.652;2024-02-26T08:09:42;2.90;;;2.70;;
64950;SDS011;51482;47.014;7.652;2024-02-26T08:12:08;2.70;;;2.50;;
64950;SDS011;51482;47.014;7.652;2024-02-26T08:14:34;3.10;;;2.30;;
64950;SDS011;51482;47.014;7.652;2024-02-26T08:16:59;2.53;;;2.43;;
64950;SDS011;51482;47.014;7.652;2024-02-26T08:19:25;2.60;;;2.40;;
64950;SDS011;51482;47.014;7.652;2024-02-26T08:21:51;2.87;;;2.67;;
64950;SDS011;51482;47.014;7.652;2024-02-26T08:24:16;2.40;;;2.23;;
64950;SDS011;51482;47.014;7.652;2024-02-26T08:26:42;2.53;;;2.33;;
64950;SDS011;51482;47.014;7.652;2024-02-26T08:29:07;2.40;;;2.10;;
64950;SDS011;51482;47.014;7.652;2024-02-26T08:31:33;2.40;;;2.20;;
64950;SDS011;51482;47.014;7.652;2024-02-26T08:34:01;2.63;;;1.77;;
64950;SDS011;51482;47.014;7.652;2024-02-26T08:36:27;2.23;;;2.10;;
64950;SDS011;51482;47.014;7.652;2024-02-26T08:38:53;2.13;;;2.00;;
64950;SDS011;51482;47.014;7.652;2024-02-26T08:41:18;2.50;;;2.30;;
64950;SDS011;51482;47.014;7.652;2024-02-26T08:43:44;2.93;;;2.57;;
64950;SDS011;51482;47.014;7.652;2024-02-26T08:46:09;2.60;;;2.20;;
64950;SDS011;51482;47.014;7.652;2024-02-26T08:48:37;2.40;;;2.20;;
64950;SDS011;51482;47.014;7.652;2024-02-26T08:51:05;3.67;;;2.13;;
64950;SDS011;51482;47.014;7.652;2024-02-26T08:53:34;2.50;;;2.17;;
64950;SDS011;51482;47.014;7.652;2024-02-26T08:56:03;3.70;;;2.10;;
64950;SDS011;51482;47.014;7.652;2024-02-26T08:58:29;2.20;;;2.10;;
64950;SDS011;51482;47.014;7.652;2024-02-26T09:00:54;6.70;;;2.40;;
64950;SDS011;51482;47.014;7.652;2024-02-26T09:03:20;2.43;;;2.23;;
64950;SDS011;51482;47.014;7.652;2024-02-26T09:05:46;2.60;;;2.40;;
64950;SDS011;51482;47.014;7.652;2024-02-26T09:08:12;2.03;;;1.93;;
64950;SDS011;51482;47.014;7.652;2024-02-26T09:10:38;2.80;;;2.60;;
64950;SDS011;51482;47.014;7.652;2024-02-26T09:13:04;2.43;;;2.23;;
64950;SDS011;51482;47.014;7.652;2024-02-26T09:15:29;2.50;;;2.30;;
64950;SDS011;51482;47.014;7.652;2024-02-26T09:17:55;2.47;;;2.27;;
64950;SDS011;51482;47.014;7.652;2024-02-26T09:20:21;2.87;;;2.57;;
64950;SDS011;51482;47.014;7.652;2024-02-26T09:22:47;2.53;;;2.33;;
64950;SDS011;51482;47.014;7.652;2024-02-26T09:25:13;2.57;;;2.37;;
64950;SDS011;51482;47.014;7.652;2024-02-26T09:27:40;2.33;;;2.20;;
64950;SDS011;51482;47.014;7.652;2024-02-26T09:30:07;3.60;;;2.57;;
64950;SDS011;51482;47.014;7.652;2024-02-26T09:32:33;2.33;;;2.13;;
64950;SDS011;51482;47.014;7.652;2024-02-26T09:34:58;3.50;;;2.10;;
64950;SDS011;51482;47.014;7.652;2024-02-26T09:37:24;2.63;;;2.27;;
64950;SDS011;51482;47.014;7.652;2024-02-26T09:39:50;2.70;;;1.90;;
64950;SDS011;51482;47.014;7.652;2024-02-26T09:42:15;2.20;;;2.00;;
64950;SDS011;51482;47.014;7.652;2024-02-26T09:44:44;2.57;;;1.90;;
64950;SDS011;51482;47.014;7.652;2024-02-26T09:47:11;1.90;;;1.80;;
64950;SDS011;51482;47.014;7.652;2024-02-26T09:49:40;2.00;;;1.90;;
64950;SDS011;51482;47.014;7.652;2024-02-26T09:52:08;1.50;;;1.40;;
64950;SDS011;51482;47.014;7.652;2024-02-26T09:54:36;1.33;;;1.30;;
64950;SDS011;51482;47.014;7.652;2024-02-26T09:57:03;2.10;;;1.43;;
64950;SDS011;51482;47.014;7.652;2024-02-26T09:59:34;1.30;;;1.20;;
64950;SDS011;51482;47.014;7.652;2024-02-26T10:02:05;3.50;;;1.33;;
64950;SDS011;51482;47.014;7.652;2024-02-26T10:04:34;1.90;;;1.27;;
64950;SDS011;51482;47.014;7.652;2024-02-26T10:07:00;1.10;;;1.10;;
64950;SDS011;51482;47.014;7.652;2024-02-26T10:09:28;1.20;;;1.10;;
64950;SDS011;51482;47.014;7.652;2024-02-26T10:11:54;1.33;;;1.23;;
64950;SDS011;51482;47.014;7.652;2024-02-26T10:14:20;1.10;;;1.10;;
64950;SDS011;51482;47.014;7.652;2024-02-26T10:16:46;1.13;;;1.13;;
64950;SDS011;51482;47.014;7.652;2024-02-26T10:19:24;1.87;;;1.00;;
64950;SDS011;51482;47.014;7.652;2024-02-26T10:21:53;1.07;;;1.07;;
64950;SDS011;51482;47.014;7.652;2024-02-26T10:24:24;2.30;;;2.10;;
64950;SDS011;51482;47.014;7.652;2024-02-26T10:26:50;1.43;;;1.33;;
64950;SDS011;51482;47.014;7.652;2024-02-26T10:29:18;1.43;;;1.33;;
64950;SDS011;51482;47.014;7.652;2024-02-26T10:31:44;1.60;;;1.50;;
64950;SDS011;51482;47.014;7.652;2024-02-26T10:34:10;1.07;;;1.07;;
64950;SDS011;51482;47.014;7.652;2024-02-26T10:36:36;1.23;;;1.23;;
64950;SDS011;51482;47.014;7.652;2024-02-26T10:39:04;1.20;;;1.20;;
64950;SDS011;51482;47.014;7.652;2024-02-26T10:41:30;1.27;;;1.23;;
64950;SDS011;51482;47.014;7.652;2024-02-26T10:43:58;2.17;;;1.70;;
64950;SDS011;51482;47.014;7.652;2024-02-26T10:46:25;1.20;;;1.20;;
64950;SDS011;51482;47.014;7.652;2024-02-26T10:48:51;1.63;;;1.40;;
64950;SDS011;51482;47.014;7.652;2024-02-26T10:51:21;1.30;;;1.20;;
64950;SDS011;51482;47.014;7.652;2024-02-26T10:53:51;3.50;;;1.20;;
64950;SDS011;51482;47.014;7.652;2024-02-26T10:56:29;1.30;;;1.20;;
64950;SDS011;51482;47.014;7.652;2024-02-26T10:58:59;2.47;;;1.50;;
64950;SDS011;51482;47.014;7.652;2024-02-26T11:01:25;1.80;;;1.70;;
64950;SDS011;51482;47.014;7.652;2024-02-26T11:03:54;1.27;;;1.27;;
64950;SDS011;51482;47.014;7.652;2024-02-26T11:06:21;1.70;;;1.60;;
64950;SDS011;51482;47.014;7.652;2024-02-26T11:08:50;1.40;;;1.40;;
64950;SDS011;51482;47.014;7.652;2024-02-26T11:11:20;1.70;;;1.60;;
64950;SDS011;51482;47.014;7.652;2024-02-26T11:13:47;1.40;;;1.27;;
64950;SDS011;51482;47.014;7.652;2024-02-26T11:16:17;1.10;;;1.10;;
64950;SDS011;51482;47.014;7.652;2024-02-26T11:18:44;2.07;;;1.73;;
64950;SDS011;51482;47.014;7.652;2024-02-26T11:21:13;1.50;;;1.40;;
64950;SDS011;51482;47.014;7.652;2024-02-26T11:23:41;1.40;;;1.30;;
64950;SDS011;51482;47.014;7.652;2024-02-26T11:26:07;1.67;;;1.57;;
64950;SDS011;51482;47.014;7.652;2024-02-26T11:28:35;1.63;;;1.53;;
64950;SDS011;51482;47.014;7.652;2024-02-26T11:31:03;1.27;;;1.17;;
64950;SDS011;51482;47.014;7.652;2024-02-26T11:33:30;1.13;;;1.10;;
64950;SDS011;51482;47.014;7.652;2024-02-26T11:35:56;2.20;;;1.20;;
64950;SDS011;51482;47.014;7.652;2024-02-26T11:38:23;1.10;;;1.10;;
64950;SDS011;51482;47.014;7.652;2024-02-26T11:40:51;1.27;;;1.27;;
64950;SDS011;51482;47.014;7.652;2024-02-26T11:43:18;1.07;;;1.07;;
64950;SDS011;51482;47.014;7.652;2024-02-26T11:45:48;1.50;;;1.40;;
64950;SDS011;51482;47.014;7.652;2024-02-26T11:48:19;1.40;;;1.30;;
64950;SDS011;51482;47.014;7.652;2024-02-26T11:50:47;1.23;;;1.23;;
64950;SDS011;51482;47.014;7.652;2024-02-26T11:58:41;1.40;;;1.30;;
64950;SDS011;51482;47.014;7.652;2024-02-26T12:04:01;1.30;;;1.20;;
64950;SDS011;51482;47.014;7.652;2024-02-26T12:06:27;1.67;;;1.23;;
64950;SDS011;51482;47.014;7.652;2024-02-26T12:08:53;3.17;;;1.83;;
64950;SDS011;51482;47.014;7.652;2024-02-26T12:11:20;1.40;;;1.30;;
64950;SDS011;51482;47.014;7.652;2024-02-26T12:13:49;1.50;;;1.40;;
64950;SDS011;51482;47.014;7.652;2024-02-26T12:16:34;1.30;;;1.30;;
64950;SDS011;51482;47.014;7.652;2024-02-26T12:19:03;1.33;;;1.13;;
64950;SDS011;51482;47.014;7.652;2024-02-26T12:21:36;1.30;;;1.20;;
64950;SDS011;51482;47.014;7.652;2024-02-26T12:24:14;1.20;;;1.03;;
64950;SDS011;51482;47.014;7.652;2024-02-26T12:26:41;1.50;;;1.40;;
64950;SDS011;51482;47.014;7.652;2024-02-26T12:29:07;1.20;;;1.10;;
64950;SDS011;51482;47.014;7.652;2024-02-26T12:31:33;1.17;;;1.10;;
64950;SDS011;51482;47.014;7.652;2024-02-26T12:34:01;1.43;;;1.33;;
64950;SDS011;51482;47.014;7.652;2024-02-26T12:36:27;1.13;;;1.13;;
64950;SDS011;51482;47.014;7.652;2024-02-26T12:38:53;1.10;;;1.10;;
64950;SDS011;51482;47.014;7.652;2024-02-26T12:41:19;1.20;;;1.20;;
64950;SDS011;51482;47.014;7.652;2024-02-26T12:43:46;1.40;;;1.30;;
64950;SDS011;51482;47.014;7.652;2024-02-26T12:46:11;1.20;;;1.20;;
64950;SDS011;51482;47.014;7.652;2024-02-26T12:48:38;1.30;;;1.20;;
64950;SDS011;51482;47.014;7.652;2024-02-26T12:51:04;0.90;;;0.90;;
64950;SDS011;51482;47.014;7.652;2024-02-26T12:53:30;1.13;;;1.13;;
64950;SDS011;51482;47.014;7.652;2024-02-26T12:55:57;1.00;;;1.00;;
64950;SDS011;51482;47.014;7.652;2024-02-26T12:58:23;1.20;;;1.10;;
64950;SDS011;51482;47.014;7.652;2024-02-26T13:00:52;1.20;;;1.20;;
64950;SDS011;51482;47.014;7.652;2024-02-26T13:03:19;1.50;;;1.40;;
64950;SDS011;51482;47.014;7.652;2024-02-26T13:05:47;4.43;;;2.33;;
64950;SDS011;51482;47.014;7.652;2024-02-26T13:08:19;1.73;;;1.60;;
64950;SDS011;51482;47.014;7.652;2024-02-26T13:10:45;1.37;;;1.37;;
64950;SDS011;51482;47.014;7.652;2024-02-26T13:13:14;1.33;;;1.23;;
64950;SDS011;51482;47.014;7.652;2024-02-26T13:15:40;2.97;;;1.40;;
64950;SDS011;51482;47.014;7.652;2024-02-26T13:18:09;1.70;;;0.80;;
64950;SDS011;51482;47.014;7.652;2024-02-26T13:20:36;1.40;;;1.30;;
64950;SDS011;51482;47.014;7.652;2024-02-26T13:23:02;3.83;;;2.00;;
64950;SDS011;51482;47.014;7.652;2024-02-26T13:25:29;1.90;;;1.70;;
64950;SDS011;51482;47.014;7.652;2024-02-26T13:28:37;1.40;;;1.30;;
64950;SDS011;51482;47.014;7.652;2024-02-26T13:30:51;1.37;;;1.27;;
64950;SDS011;51482;47.014;7.652;2024-02-26T13:33:17;1.00;;;1.00;;
64950;SDS011;51482;47.014;7.652;2024-02-26T13:35:44;1.57;;;1.43;;
64950;SDS011;51482;47.014;7.652;2024-02-26T13:38:10;0.90;;;0.90;;
64950;SDS011;51482;47.014;7.652;2024-02-26T13:40:37;1.30;;;1.20;;
64950;SDS011;51482;47.014;7.652;2024-02-26T13:43:04;1.20;;;1.20;;
64950;SDS011;51482;47.014;7.652;2024-02-26T13:45:29;1.20;;;1.10;;
64950;SDS011;51482;47.014;7.652;2024-02-26T13:47:59;1.90;;;1.40;;
64950;SDS011;51482;47.014;7.652;2024-02-26T13:50:28;1.20;;;1.10;;
64950;SDS011;51482;47.014;7.652;2024-02-26T13:52:53;1.20;;;1.20;;
64950;SDS011;51482;47.014;7.652;2024-02-26T13:55:21;3.07;;;1.33;;
64950;SDS011;51482;47.014;7.652;2024-02-26T13:57:49;1.47;;;1.37;;
64950;SDS011;51482;47.014;7.652;2024-02-26T14:00:17;0.90;;;0.90;;
64950;SDS011;51482;47.014;7.652;2024-02-26T14:02:43;1.40;;;1.30;;
64950;SDS011;51482;47.014;7.652;2024-02-26T14:05:08;1.00;;;1.00;;
64950;SDS011;51482;47.014;7.652;2024-02-26T14:07:34;1.43;;;1.10;;
64950;SDS011;51482;47.014;7.652;2024-02-26T14:09:59;1.33;;;1.20;;
64950;SDS011;51482;47.014;7.652;2024-02-26T14:12:25;1.60;;;1.50;;
64950;SDS011;51482;47.014;7.652;2024-02-26T14:14:51;1.40;;;1.30;;
64950;SDS011;51482;47.014;7.652;2024-02-26T14:17:18;1.30;;;1.20;;
64950;SDS011;51482;47.014;7.652;2024-02-26T14:19:44;1.30;;;1.30;;
64950;SDS011;51482;47.014;7.652;2024-02-26T14:22:13;1.30;;;1.20;;
64950;SDS011;51482;47.014;7.652;2024-02-26T14:24:40;1.70;;;1.60;;
64950;SDS011;51482;47.014;7.652;2024-02-26T14:27:07;1.70;;;1.27;;
64950;SDS011;51482;47.014;7.652;2024-02-26T14:29:33;2.17;;;1.97;;
64950;SDS011;51482;47.014;7.652;2024-02-26T14:31:59;1.57;;;1.47;;
64950;SDS011;51482;47.014;7.652;2024-02-26T14:34:26;1.83;;;1.43;;
64950;SDS011;51482;47.014;7.652;2024-02-26T14:36:51;2.23;;;1.70;;
64950;SDS011;51482;47.014;7.652;2024-02-26T14:39:17;1.70;;;1.60;;
64950;SDS011;51482;47.014;7.652;2024-02-26T14:41:43;3.43;;;1.70;;
64950;SDS011;51482;47.014;7.652;2024-02-26T14:44:08;1.50;;;1.40;;
64950;SDS011;51482;47.014;7.652;2024-02-26T14:46:34;1.17;;;1.07;;
64950;SDS011;51482;47.014;7.652;2024-02-26T14:49:00;2.40;;;1.90;;
64950;SDS011;51482;47.014;7.652;2024-02-26T14:51:26;2.13;;;1.53;;